Garden Spring, Nevada Weather observations

Data are for 10 minute period ending at time listed.
 Day   Time    Ave.   Ave.  Ave.  Vector   Max.   Stn.    Total    Solar   Ave.  
  of    of     Air    Rel.  Wind   Wind    Wind   Baro.  Precip.   Rad.    Soil  
Year   Day     Temp.  Hum.  Speed  Dir.    Gust   Pres.                    Temp. 
2026   (PST)    F      %     mph   deg.    mph     mb.     in.     W/m2     F    
--------------------------------------------------------------------------------- 
 127   16:20   81.1    10    6.8   230     13.3   850.5    0.00     452    78.5  
 127   16:30   81.3    10    5.8   244     11.7   850.4    0.00     417    78.6  
 127   16:40   80.8    10    7.3   240     12.2   850.4    0.00     375    78.7  
 127   16:50   80.5    10    6.8   226     11.9   850.4    0.00     357    78.7  
 127   17:00   80.6    10    6.7   207     10.9   850.3    0.00     327    78.7  
 127   17:10   79.7    10    5.8   216     10.6   850.3    0.00     177    78.6  
 127   17:20   78.9    10    5.4   222      9.5   850.3    0.00     178    78.4  
 127   17:30   78.6    10    5.3   222      9.8   850.3    0.00     159    78.3  
 127   17:40   79.0    10    5.0   215     10.0   850.3    0.00     165    78.2  
 127   17:50   78.3    10    4.5   211      7.4   850.3    0.00     130    78.2  
 127   18:00   77.6    11    4.5   205      7.5   850.3    0.00      91    78.0  
 127   18:10   76.5    11    5.5   207     11.0   850.3    0.00      39    77.9  
 127   18:20   74.8    11    4.2   215      7.7   850.3    0.00      15    77.6  
 127   18:30   73.2    12    3.6   247      5.1   850.4    0.00       9    77.3  
 127   18:40   71.8    13    3.9   250      6.7   850.4    0.00       5    77.1  
 127   18:50   72.2    12    3.7   226      5.7   850.5    0.00       2    76.9  
 127   19:00   72.2    12    4.0   232     10.3   850.6    0.00       1    76.8  
 127   19:10   73.0    12    4.7   248      9.6   850.7    0.00       0    76.8  
 127   19:20   70.4    13    4.4   291      6.2   850.8    0.00       0    76.7  
 127   19:30   69.0    14    4.2   277      8.4   850.9    0.00       0    76.4  
 127   19:40   70.8    13    3.4   264      7.6   851.0    0.00       0    76.2  
 127   19:50   70.5    13    3.1   275      8.4   851.1    0.00       0    76.1  
 127   20:00   69.1    14    2.4   289      5.3   851.2    0.00       0    75.9  
 127   20:10   68.5    14    3.0   294      4.9   851.3    0.00       0    75.6  
 127   20:20   68.7    14    3.7   287      7.4   851.4    0.00       0    75.4  
 127   20:30   69.4    14    4.4   276     10.9   851.4    0.00       0    75.3  
 127   20:40   69.5    14    4.4   279      7.6   851.5    0.00       0    75.3  
 127   20:50   69.3    14    5.1   280      9.0   851.5    0.00       0    75.1  
 127   21:00   69.2    14    4.9   278      8.3   851.5    0.00       0    74.9  
 127   21:10   68.6    14    5.2   290      7.1   851.5    0.00       0    74.7  
 127   21:20   67.7    14    5.3   288      6.8   851.5    0.00       0    74.5  
 127   21:30   68.3    14    5.1   278     10.3   851.5    0.00       0    74.2  
 127   21:40   68.7    14    5.0   280      8.0   851.5    0.00       0    74.1  
 127   21:50   68.0    14    5.1   280      7.4   851.5    0.00       0    73.9  
 127   22:00   67.9    14    4.9   273      8.6   851.5    0.00       0    73.7  
 127   22:10   67.9    14    4.3   281      7.2   851.4    0.00       0    73.5  
 127   22:20   66.8    15    4.3   282      7.3   851.4    0.00       0    73.2  
 127   22:30   67.2    15    5.0   291      7.1   851.3    0.00       0    73.0  
 127   22:40   67.5    14    4.9   295      6.8   851.3    0.00       0    72.9  
 127   22:50   67.4    14    5.2   297      7.5   851.4    0.00       0    72.7  
 127   23:00   67.0    15    5.1   295      7.2   851.4    0.00       0    72.5  
 127   23:10   66.6    15    5.6   299      7.6   851.4    0.00       0    72.3  
 127   23:20   66.1    15    6.3   300      7.9   851.4    0.00       0    72.1  
 127   23:30   66.3    15    5.6   294      6.8   851.4    0.00       0    72.0  
 127   23:40   66.6    15    5.4   287      6.4   851.5    0.00       0    71.8  
 127   23:50   66.5    15    5.1   289      6.0   851.5    0.00       0    71.7  
 128    0:00   65.6    16    4.8   279      6.8   851.5    0.00       0    71.4  
 128    0:10   62.8    18    4.6   256      5.9   851.5    0.00       0    71.2  
 128    0:20   61.8    19    4.4   261      5.7   851.5    0.00       0    70.9  
 128    0:30   61.6    19    4.7   260      7.6   851.5    0.00       0    70.7  
 128    0:40   61.3    19    3.7   262      5.3   851.4    0.00       0    70.5  
 128    0:50   61.5    19    4.1   252      5.9   851.4    0.00       0    70.3  
 128    1:00   61.9    19    4.2   251      5.4   851.3    0.00       0    70.2  
 128    1:10   61.0    19    2.9   264      4.6   851.3    0.00       0    70.1  
 128    1:20   60.7    19    2.2   306      4.1   851.3    0.00       0    69.9  
 128    1:30   60.3    20    3.9   263      5.7   851.3    0.00       0    69.8  
 128    1:40   57.6    23    5.3   262      6.3   851.3    0.00       0    69.6  
 128    1:50   59.2    22    5.3   276      6.2   851.3    0.00       0    69.5  
 128    2:00   59.7    22    4.6   274      6.5   851.3    0.00       0    69.5  
 128    2:10   58.5    22    5.4   292      8.5   851.3    0.00       0    69.3  
 128    2:20   61.4    20    5.5   284      7.9   851.3    0.00       0    69.3  
 128    2:30   62.9    19    5.7   281      7.3   851.4    0.00       0    69.2  
 128    2:40   63.2    19    4.4   282      6.7   851.4    0.00       0    69.2  
 128    2:50   60.7    21    4.1   271      5.3   851.3    0.00       0    68.9  
 128    3:00   58.7    23    4.8   261      5.8   851.3    0.00       0    68.6  
 128    3:10   58.4    23    3.9   266      5.5   851.3    0.00       0    68.4  
 128    3:20   57.1    25    4.5   274      6.2   851.4    0.00       0    68.2  
 128    3:30   58.2    23    5.3   269      8.4   851.4    0.00       0    68.1  
 128    3:40   59.9    22    6.1   257      8.9   851.4    0.00       0    68.1  
 128    3:50   60.0    22    5.6   263      7.5   851.4    0.00       0    68.0  
 128    4:00   59.8    22    5.9   257      7.3   851.5    0.00       0    67.9  
 128    4:10   61.0    21    5.6   264      7.0   851.5    0.00       0    67.8  
 128    4:20   59.3    22    5.3   278      8.2   851.5    0.00       0    67.6  
 128    4:30   59.8    22    6.4   283      9.2   851.5    0.00       1    67.5  
 128    4:40   60.9    21    5.8   288      8.0   851.6    0.00       4    67.4  
 128    4:50   61.0    21    5.1   271      6.8   851.6    0.00      11    67.3  
 128    5:00   59.5    23    5.2   272      8.0   851.7    0.00      26    67.2  
 128    5:10   59.7    23    4.4   266      6.4   851.7    0.00      53    67.1  
 128    5:20   63.0    22    3.7   267      4.6   851.8    0.00      89    67.3  
 128    5:30   66.0    21    3.7   291      5.4   851.9    0.00     125    67.7  
 128    5:40   68.7    19    3.2   306      5.7   851.9    0.00     157    68.1  
 128    5:50   71.5    18    2.5   322      4.3   852.0    0.00     190    68.4  
 128    6:00   73.5    16    2.9   296      5.0   852.1    0.00     225    68.5  
 128    6:10   75.1    14    2.6   324      5.3   852.1    0.00     261    68.6  
 128    6:20   77.8    14    2.2   338      5.6   852.2    0.00     298    68.5  
 128    6:30   79.1    13    2.9   356      5.9   852.3    0.00     335    68.5  
 128    6:40   79.4    13    3.8   325      7.5   852.4    0.00     371    68.4  
 128    6:50   78.9    13    4.3   326      7.5   852.4    0.00     407    67.8  
 128    7:00   80.0    12    3.8   337      6.8   852.4    0.00     444    67.6  
 128    7:10   80.3    12    4.4   328     11.0   852.5    0.00     481    67.4  
 128    7:20   80.8    12    2.7   344      8.0   852.4    0.00     518    67.3  
 128    7:30   80.2    12    3.9    56      8.7   852.4    0.00     554    67.1  
 128    7:40   81.8    12    4.1   352      8.9   852.5    0.00     589    67.1  
 128    7:50   81.1    12    5.9   326     11.4   852.5    0.00     621    67.1  
 128    8:00   80.5    12    6.0   310     10.3   852.4    0.00     654    67.0  
 128    8:10   80.3    12    6.1   276     10.3   852.4    0.00     686    66.9  
 128    8:20   80.6    12    5.7   284     11.1   852.5    0.00     717    66.9  
 128    8:30   82.8    11    3.8   311     11.9   852.6    0.00     747    67.1  
 128    8:40   81.9    11    6.2   313     11.0   852.6    0.00     775    67.2  
 128    8:50   82.0    10    4.3   330      9.2   852.6    0.00     805    67.2  
 128    9:00   83.0    10    5.5   338     12.9   852.6    0.00     836    67.4  
 128    9:10   83.2    10    5.5     9     13.3   852.6    0.00     862    67.4  
 128    9:20   84.2    10    4.4   347     11.1   852.5    0.00     885    67.6  
 128    9:30   83.9    10    5.4   292     13.8   852.6    0.00     905    67.9  
 128    9:40   83.8    10    5.9   295     12.1   852.6    0.00     927    68.2  
 128    9:50   83.4    10    7.0   321     18.2   852.6    0.00     948    68.4  
 128   10:00   82.6    10    6.5   288     16.8   852.5    0.00     965    68.5  
 128   10:10   83.1    10    9.7   286     22.4   852.5    0.00     980    68.8  
 128   10:20   83.3     9    8.9   297     16.8   852.5    0.00     994    69.1  
 128   10:30   83.3     9    8.0   295     17.1   852.4    0.00    1010    69.4  
 128   10:40   84.2     9    8.5   352     20.2   852.3    0.00    1024    69.7  
 128   10:50   84.5     9    8.1   279     19.2   852.2    0.00    1031    70.1  
 128   11:00   84.3     9    7.9   257     17.3   852.2    0.00    1043    70.4  
 128   11:10   84.1     9    8.3   290     15.3   852.0    0.00    1044    70.6  
 128   11:20   84.9     9    7.2   273     18.0   851.9    0.00    1046    70.9  
 128   11:30   84.5     9    9.6   267     22.5   851.8    0.00    1051    71.2  
 128   11:40   84.6     9    8.4   249     16.1   851.7    0.00    1053    71.5  
 128   11:50   85.5     8    7.4   271     15.1   851.7    0.00    1053    71.9  
 128   12:00   85.7     8    8.8   252     16.4   851.6    0.00    1051    72.2  
 128   12:10   85.5     8    8.0   261     16.3   851.5    0.00    1048    72.7  
 128   12:20   85.6     8    8.1   319     16.4   851.5    0.00    1042    73.2  
 128   12:30   85.6     8    6.1   280     14.2   851.4    0.00    1034    73.7  
 128   12:40   85.6     8    7.3   299     16.6   851.3    0.00    1024    74.1  
 128   12:50   86.3     8    5.8   235     13.8   851.2    0.00    1012    74.7  
 128   13:00   86.4     8    5.9   262     14.6   851.1    0.00     999    75.1  
 128   13:10   87.4     8    5.9   302     16.0   851.0    0.00     985    75.7  
 128   13:20   86.7     7    7.0   274     15.7   851.0    0.00     969    76.1  
 128   13:30   87.0     8    4.3   292      9.2   850.8    0.00     951    76.5  
 128   13:40   88.0     7    5.9   256     13.8   850.7    0.00     933    77.0  
 128   13:50   86.7     8    7.5   245     16.0   850.6    0.00     912    77.3  
 128   14:00   87.7     7    6.3   276     15.2   850.6    0.00     890    77.7  
 128   14:10   87.6     7    6.2   273     13.6   850.4    0.00     866    78.1  
 128   14:20   87.3     7    4.9   251     13.6   850.2    0.00     838    78.4  
 128   14:30   87.9     7    7.4   294     16.9   850.1    0.00     809    78.8  
 128   14:40   87.4     7    7.8   312     17.0   850.0    0.00     781    79.1  
 128   14:50   88.1     7    4.1   264     10.8   849.9    0.00     754    79.4  
 128   15:00   88.0     6    7.0   262     13.8   849.9    0.00     728    79.8  
 128   15:10   87.6     6    9.3   257     17.1   849.7    0.00     697    80.0  
 128   15:20   87.9     6    8.4   270     16.5   849.7    0.00     666    80.2  
 128   15:30   87.6     6    7.0   284     15.9   849.6    0.00     636    80.4  
 128   15:40   87.2     6    9.7   263     19.5   849.5    0.00     601    80.7  
 128   15:50   88.2     6    6.4   274     14.0   849.6    0.00     567    80.9  
 128   16:00   87.3     6    7.1   235     13.3   849.5    0.00     531    81.1  
 128   16:10   86.7     6    9.7   259     21.1   849.4    0.00     495    81.2  

Return to Garden Spring, Nevada graphs page.


Western Regional Climate Center,wrcc@dri.edu